createdAt,value
2018-07-24T00:00:09.430Z,11.83
2018-07-24T00:03:11.484Z,11.70
2018-07-24T00:06:17.568Z,12.37
2018-07-24T00:09:20.867Z,14.03
2018-07-24T00:12:22.937Z,10.67
2018-07-24T00:15:25.027Z,11.87
2018-07-24T00:18:29.114Z,10.70
2018-07-24T00:21:31.248Z,11.13
2018-07-24T00:24:33.360Z,10.57
2018-07-24T00:27:35.299Z,11.17
2018-07-24T00:30:37.372Z,10.63
2018-07-24T00:33:39.476Z,11.20
2018-07-24T00:36:41.544Z,11.13
2018-07-24T00:39:43.582Z,12.13
2018-07-24T00:42:45.546Z,11.93
2018-07-24T00:45:47.623Z,11.10
2018-07-24T00:48:50.793Z,11.50
2018-07-24T00:51:52.743Z,11.03
2018-07-24T00:54:54.887Z,10.57
2018-07-24T00:57:56.918Z,10.63
2018-07-24T01:00:58.939Z,11.07
2018-07-24T01:04:01.157Z,19.70
2018-07-24T01:07:03.302Z,12.07
2018-07-24T01:10:06.306Z,12.23
2018-07-24T01:13:08.335Z,14.20
2018-07-24T01:16:10.399Z,11.50
2018-07-24T01:19:12.479Z,11.67
2018-07-24T01:22:14.635Z,12.00
2018-07-24T01:25:16.713Z,11.80
2018-07-24T01:28:18.726Z,11.90
2018-07-24T01:31:20.869Z,11.10
2018-07-24T01:34:22.946Z,11.27
2018-07-24T01:37:24.853Z,11.47
2018-07-24T01:40:26.966Z,11.93
2018-07-24T01:43:29.040Z,11.00
2018-07-24T01:46:31.121Z,11.50
2018-07-24T01:49:33.255Z,10.17
2018-07-24T01:52:35.319Z,10.93
2018-07-24T01:55:37.410Z,10.77
2018-07-24T01:58:39.355Z,11.87
2018-07-24T02:01:42.164Z,11.40
2018-07-24T02:04:44.319Z,10.57
2018-07-24T02:07:46.302Z,11.30
2018-07-24T02:10:48.391Z,11.73
2018-07-24T02:13:51.203Z,11.77
2018-07-24T02:16:53.505Z,12.03
2018-07-24T02:19:55.451Z,11.23
2018-07-24T02:22:57.657Z,11.13
2018-07-24T02:25:59.656Z,11.30
2018-07-24T02:29:01.731Z,11.13
2018-07-24T02:32:12.128Z,11.50
2018-07-24T02:35:14.451Z,11.47
2018-07-24T02:38:16.580Z,11.53
2018-07-24T02:41:18.715Z,11.80
2018-07-24T02:44:21.910Z,10.60
2018-07-24T02:47:24.169Z,10.90
2018-07-24T02:50:26.280Z,10.50
2018-07-24T02:53:28.491Z,12.07
2018-07-24T02:56:30.642Z,11.57
2018-07-24T02:59:32.659Z,11.40
2018-07-24T03:02:34.824Z,11.20
2018-07-24T03:05:37.804Z,11.47
2018-07-24T03:08:40.130Z,12.93
2018-07-24T03:11:42.479Z,11.10
2018-07-24T03:14:45.889Z,11.50
2018-07-24T03:17:48.056Z,11.07
2018-07-24T03:20:50.147Z,11.30
2018-07-24T03:23:52.942Z,11.63
2018-07-24T03:26:55.075Z,11.20
2018-07-24T03:29:57.129Z,10.77
2018-07-24T03:32:59.212Z,11.07
2018-07-24T03:36:01.339Z,11.20
2018-07-24T03:39:06.695Z,11.40
2018-07-24T03:42:10.330Z,11.90
2018-07-24T03:45:13.489Z,11.63
2018-07-24T03:48:15.678Z,11.33
2018-07-24T03:51:17.766Z,11.67
2018-07-24T03:54:19.883Z,11.30
2018-07-24T03:57:22.900Z,12.37
2018-07-24T04:00:25.027Z,11.30
2018-07-24T04:03:27.173Z,11.07
2018-07-24T04:06:29.259Z,11.63
2018-07-24T04:09:31.396Z,12.00
2018-07-24T04:12:33.536Z,11.87
2018-07-24T04:15:35.681Z,12.07
2018-07-24T04:18:44.018Z,11.97
2018-07-24T04:21:46.200Z,12.47
2018-07-24T04:24:48.371Z,12.07
2018-07-24T04:27:50.583Z,12.10
2018-07-24T04:30:59.109Z,12.83
2018-07-24T04:34:01.173Z,12.20
2018-07-24T04:37:03.258Z,13.97
2018-07-24T04:40:10.256Z,12.93
2018-07-24T04:43:12.511Z,12.80
2018-07-24T04:46:14.719Z,12.33
2018-07-24T04:49:16.904Z,12.77
2018-07-24T04:52:19.021Z,12.83
2018-07-24T04:55:22.139Z,12.93
2018-07-24T04:58:24.143Z,12.90
2018-07-24T05:01:27.354Z,13.77
2018-07-24T05:04:29.552Z,13.13
2018-07-24T05:07:31.619Z,14.03
2018-07-24T05:10:33.819Z,13.80
2018-07-24T05:13:35.871Z,14.67
2018-07-24T05:16:38.172Z,14.47
2018-07-24T05:19:40.383Z,15.00
2018-07-24T05:22:42.953Z,13.53
2018-07-24T05:25:44.982Z,15.23
2018-07-24T05:28:47.155Z,15.50
2018-07-24T05:31:49.251Z,14.53
2018-07-24T05:34:51.754Z,15.17
2018-07-24T05:37:53.851Z,15.90
2018-07-24T05:40:55.965Z,16.77
2018-07-24T05:43:58.083Z,15.17
2018-07-24T05:47:00.055Z,19.57
2018-07-24T05:50:02.190Z,14.43
2018-07-24T05:53:05.486Z,12.90
2018-07-24T05:56:08.623Z,15.17
2018-07-24T05:59:10.683Z,15.00
2018-07-24T06:02:12.922Z,11.97
2018-07-24T06:05:14.879Z,10.50
2018-07-24T06:08:16.980Z,11.03
2018-07-24T06:11:19.071Z,15.00
2018-07-24T06:14:21.204Z,11.10
2018-07-24T06:17:23.643Z,11.00
2018-07-24T06:20:25.582Z,10.67
2018-07-24T06:23:27.644Z,11.50
2018-07-24T06:26:29.701Z,12.97
2018-07-24T06:29:31.696Z,13.40
2018-07-24T06:32:33.789Z,12.60
2018-07-24T06:35:35.886Z,12.73
2018-07-24T06:38:39.023Z,15.33
2018-07-24T06:41:41.582Z,14.60
2018-07-24T06:44:43.652Z,14.83
2018-07-24T06:47:45.746Z,15.83
2018-07-24T06:50:47.663Z,16.53
2018-07-24T06:53:49.755Z,18.73
2018-07-24T06:56:51.806Z,18.23
2018-07-24T06:59:54.923Z,16.10
2018-07-24T07:02:57.038Z,15.47
2018-07-24T07:05:59.143Z,14.47
2018-07-24T07:09:04.247Z,14.20
2018-07-24T07:12:06.373Z,15.97
2018-07-24T07:15:08.759Z,15.47
2018-07-24T07:18:10.796Z,14.93
2018-07-24T07:21:13.906Z,14.93
2018-07-24T07:24:15.927Z,17.40
2018-07-24T07:27:17.935Z,16.40
2018-07-24T07:30:20.067Z,15.70
2018-07-24T07:33:22.186Z,19.37
2018-07-24T07:36:24.258Z,17.00
2018-07-24T07:39:26.434Z,16.17
2018-07-24T07:42:28.509Z,15.43
2018-07-24T07:45:30.558Z,15.30
2018-07-24T07:48:32.760Z,15.73
2018-07-24T07:51:36.950Z,14.97
2018-07-24T07:54:38.893Z,15.80
2018-07-24T07:57:41.018Z,14.87
2018-07-24T08:00:43.126Z,13.10
2018-07-24T08:03:45.213Z,13.87
2018-07-24T08:06:47.326Z,12.77
2018-07-24T08:09:50.384Z,17.23
2018-07-24T08:12:52.449Z,12.50
2018-07-24T08:15:54.638Z,12.17
2018-07-24T08:18:56.775Z,13.20
2018-07-24T08:21:58.891Z,14.00
2018-07-24T08:25:00.914Z,13.00
2018-07-24T08:28:03.030Z,11.57
2018-07-24T08:31:05.907Z,11.50
2018-07-24T08:34:08.077Z,11.63
2018-07-24T08:37:10.156Z,13.43
2018-07-24T08:40:12.230Z,12.60
2018-07-24T08:43:14.372Z,11.83
2018-07-24T08:46:16.493Z,10.80
2018-07-24T08:49:18.620Z,11.33
2018-07-24T08:52:20.584Z,12.53
2018-07-24T08:55:22.974Z,13.30
2018-07-24T08:58:24.586Z,10.77
2018-07-24T09:01:26.739Z,10.20
2018-07-24T09:04:28.772Z,10.57
2018-07-24T09:07:30.820Z,9.80
2018-07-24T09:10:32.986Z,9.87
2018-07-24T09:13:35.044Z,9.63
2018-07-24T09:16:38.742Z,10.20
2018-07-24T09:19:40.835Z,12.07
2018-07-24T09:22:42.891Z,9.73
2018-07-24T09:25:45.015Z,10.60
2018-07-24T09:28:47.032Z,9.23
2018-07-24T09:31:49.187Z,9.20
2018-07-24T09:34:51.135Z,9.17
2018-07-24T09:37:53.149Z,9.73
2018-07-24T09:40:55.230Z,9.33
2018-07-24T09:43:57.259Z,8.57
2018-07-24T09:46:59.527Z,9.40
2018-07-24T09:50:01.645Z,9.03
2018-07-24T09:53:03.687Z,8.30
2018-07-24T09:56:06.686Z,9.40
2018-07-24T09:59:08.783Z,8.50
2018-07-24T10:02:11.342Z,8.60
2018-07-24T10:05:13.496Z,8.90
2018-07-24T10:08:15.619Z,9.40
2018-07-24T10:11:17.749Z,8.10
2018-07-24T10:14:19.667Z,8.00
2018-07-24T10:17:21.781Z,8.23
2018-07-24T10:20:23.861Z,8.50
2018-07-24T10:23:25.931Z,8.10
2018-07-24T10:26:28.108Z,8.17
2018-07-24T10:29:30.283Z,7.93
2018-07-24T10:32:32.366Z,7.23
2018-07-24T10:35:34.405Z,7.43
2018-07-24T10:38:37.284Z,7.53
2018-07-24T10:41:39.351Z,7.97
2018-07-24T10:44:41.331Z,7.90
2018-07-24T10:47:43.425Z,7.77
2018-07-24T10:50:45.433Z,8.93
2018-07-24T10:53:47.621Z,7.57
2018-07-24T10:56:49.724Z,7.60
2018-07-24T10:59:51.814Z,7.70
2018-07-24T11:02:53.953Z,7.57
2018-07-24T11:05:56.118Z,7.83
2018-07-24T11:08:58.171Z,7.87
2018-07-24T11:12:00.164Z,6.33
2018-07-24T11:15:02.405Z,6.00
2018-07-24T11:18:04.571Z,7.30
2018-07-24T11:21:06.768Z,6.30
2018-07-24T11:24:08.858Z,7.37
2018-07-24T11:27:10.884Z,8.93
2018-07-24T11:30:12.991Z,6.50
2018-07-24T11:33:15.135Z,8.47
2018-07-24T11:36:17.172Z,6.97
2018-07-24T11:39:20.251Z,6.80
2018-07-24T11:42:22.608Z,7.03
2018-07-24T11:45:24.631Z,6.73
2018-07-24T11:48:26.770Z,6.60
2018-07-24T11:51:28.824Z,7.33
2018-07-24T11:54:30.979Z,6.63
2018-07-24T11:57:33.024Z,7.63
2018-07-24T12:00:35.185Z,6.77
2018-07-24T12:03:37.313Z,9.70
2018-07-24T12:06:40.399Z,6.63
2018-07-24T12:09:42.459Z,6.10
2018-07-24T12:12:44.378Z,5.67
2018-07-24T12:15:46.495Z,5.30
2018-07-24T12:18:48.553Z,7.17
2018-07-24T12:21:50.647Z,6.63
2018-07-24T12:24:52.722Z,8.23
2018-07-24T12:27:54.769Z,7.07
2018-07-24T12:30:56.813Z,6.60
2018-07-24T12:33:58.920Z,8.40
2018-07-24T12:37:01.013Z,5.67
2018-07-24T12:40:03.262Z,7.63
2018-07-24T12:43:06.480Z,7.17
2018-07-24T12:46:08.541Z,5.43
2018-07-24T12:49:10.719Z,5.33
2018-07-24T12:52:12.678Z,5.57
2018-07-24T12:55:14.801Z,5.83
2018-07-24T12:58:16.918Z,6.03
2018-07-24T13:01:19.015Z,6.00
2018-07-24T13:04:21.062Z,6.40
2018-07-24T13:07:23.135Z,5.93
2018-07-24T13:10:25.544Z,7.40
2018-07-24T13:13:27.643Z,6.60
2018-07-24T13:16:30.839Z,6.10
2018-07-24T13:19:33.033Z,6.43
2018-07-24T13:22:35.922Z,6.83
2018-07-24T13:25:38.025Z,6.40
2018-07-24T13:28:40.042Z,6.80
2018-07-24T13:31:42.252Z,6.90
2018-07-24T13:34:46.572Z,6.67
2018-07-24T13:37:48.631Z,6.57
2018-07-24T13:40:50.709Z,6.57
2018-07-24T13:43:52.949Z,8.50
2018-07-24T13:46:55.057Z,6.10
2018-07-24T13:49:57.089Z,5.97
2018-07-24T13:52:59.131Z,6.37
2018-07-24T13:56:01.260Z,6.00
2018-07-24T13:59:03.440Z,8.53
2018-07-24T14:02:07.127Z,6.10
2018-07-24T14:05:09.192Z,6.20
2018-07-24T14:08:11.264Z,8.80
2018-07-24T14:11:13.447Z,5.33
2018-07-24T14:14:15.643Z,6.10
2018-07-24T14:17:17.661Z,5.77
2018-07-24T14:20:19.883Z,5.63
2018-07-24T14:23:21.850Z,5.73
2018-07-24T14:26:23.881Z,7.63
2018-07-24T14:29:26.046Z,6.10
2018-07-24T14:32:28.129Z,6.57
2018-07-24T14:35:30.243Z,6.20
2018-07-24T14:38:32.366Z,7.60
2018-07-24T14:41:34.439Z,5.60
2018-07-24T14:44:36.814Z,7.23
2018-07-24T14:47:52.622Z,6.83
2018-07-24T14:50:55.522Z,5.87
2018-07-24T14:53:57.528Z,5.60
2018-07-24T14:56:59.639Z,10.10
2018-07-24T15:00:01.753Z,5.40
2018-07-24T15:03:03.694Z,5.03
2018-07-24T15:06:06.732Z,5.40
2018-07-24T15:09:10.580Z,5.47
2018-07-24T15:12:12.645Z,6.00
2018-07-24T15:15:14.813Z,6.10
2018-07-24T15:18:16.938Z,5.83
2018-07-24T15:21:19.016Z,8.53
2018-07-24T15:24:21.237Z,6.27
2018-07-24T15:27:23.326Z,5.37
2018-07-24T15:30:25.420Z,7.43
2018-07-24T15:33:27.518Z,7.40
2018-07-24T15:36:29.661Z,5.37
2018-07-24T15:39:31.680Z,6.23
2018-07-24T15:42:33.639Z,5.47
2018-07-24T15:45:35.995Z,8.30
2018-07-24T15:48:38.227Z,5.57
2018-07-24T15:51:40.369Z,6.30
2018-07-24T15:54:42.692Z,9.73
2018-07-24T15:57:45.018Z,5.87
2018-07-24T16:00:47.025Z,6.13
2018-07-24T16:03:51.024Z,5.40
2018-07-24T16:06:53.172Z,5.53
2018-07-24T16:09:55.231Z,6.37
2018-07-24T16:12:57.238Z,6.17
2018-07-24T16:15:59.399Z,6.37
2018-07-24T16:19:01.703Z,8.37
2018-07-24T16:22:03.867Z,5.33
2018-07-24T16:25:06.038Z,5.80
2018-07-24T16:28:08.096Z,6.20
2018-07-24T16:31:10.158Z,5.87
2018-07-24T16:34:12.251Z,5.67
2018-07-24T16:37:14.408Z,5.40
2018-07-24T16:40:16.398Z,5.10
2018-07-24T16:43:18.503Z,6.27
2018-07-24T16:46:20.527Z,5.97
2018-07-24T16:49:22.658Z,6.03
2018-07-24T16:52:24.734Z,6.50
2018-07-24T16:55:26.807Z,6.93
2018-07-24T16:58:29.019Z,5.30
2018-07-24T17:01:31.076Z,5.60
2018-07-24T17:04:33.211Z,5.60
2018-07-24T17:07:37.354Z,6.00
2018-07-24T17:10:39.334Z,5.30
2018-07-24T17:13:41.465Z,6.77
2018-07-24T17:16:43.487Z,5.93
2018-07-24T17:19:45.610Z,5.90
2018-07-24T17:22:47.751Z,5.97
2018-07-24T17:25:49.797Z,5.17
2018-07-24T17:28:51.860Z,6.17
2018-07-24T17:31:54.058Z,5.90
2018-07-24T17:34:56.130Z,6.10
2018-07-24T17:37:58.083Z,6.50
2018-07-24T17:41:00.292Z,5.90
2018-07-24T17:44:07.236Z,6.07
2018-07-24T17:47:09.287Z,7.60
2018-07-24T17:50:11.459Z,6.60
2018-07-24T17:53:13.771Z,6.80
2018-07-24T17:56:15.950Z,5.63
2018-07-24T17:59:18.052Z,6.10
2018-07-24T18:02:20.214Z,6.60
2018-07-24T18:05:22.155Z,7.20
2018-07-24T18:08:24.275Z,9.93
2018-07-24T18:11:26.462Z,7.73
2018-07-24T18:14:28.618Z,7.20
2018-07-24T18:17:31.719Z,6.67
2018-07-24T18:20:33.790Z,6.07
2018-07-24T18:23:37.550Z,5.57
2018-07-24T18:26:39.691Z,6.70
2018-07-24T18:29:41.743Z,6.27
2018-07-24T18:32:43.903Z,6.07
2018-07-24T18:35:45.991Z,6.03
2018-07-24T18:38:48.084Z,8.20
2018-07-24T18:41:50.096Z,6.83
2018-07-24T18:44:52.184Z,6.30
2018-07-24T18:47:54.317Z,6.27
2018-07-24T18:50:56.391Z,6.37
2018-07-24T18:53:58.377Z,6.50
2018-07-24T18:57:01.519Z,6.30
2018-07-24T19:00:04.416Z,7.33
2018-07-24T19:03:06.612Z,8.23
2018-07-24T19:06:08.787Z,7.57
2018-07-24T19:09:11.801Z,7.67
2018-07-24T19:12:13.971Z,8.53
2018-07-24T19:15:17.067Z,7.90
2018-07-24T19:18:19.243Z,10.33
2018-07-24T19:21:21.275Z,8.93
2018-07-24T19:24:23.236Z,8.93
2018-07-24T19:27:25.344Z,10.60
2018-07-24T19:30:27.537Z,9.23
2018-07-24T19:33:30.774Z,12.73
2018-07-24T19:36:32.953Z,8.67
2018-07-24T19:39:35.111Z,10.47
2018-07-24T19:42:37.195Z,7.53
2018-07-24T19:45:40.179Z,7.60
2018-07-24T19:48:42.482Z,9.63
2018-07-24T19:51:44.604Z,9.57
2018-07-24T19:54:46.687Z,10.30
2018-07-24T19:57:48.806Z,12.67
2018-07-24T20:00:50.975Z,12.37
2018-07-24T20:03:54.099Z,9.57
2018-07-24T20:06:57.225Z,8.93
2018-07-24T20:09:59.339Z,11.77
2018-07-24T20:13:01.586Z,10.13
2018-07-24T20:16:03.732Z,8.97
2018-07-24T20:19:05.956Z,10.83
2018-07-24T20:22:08.195Z,7.70
2018-07-24T20:25:11.343Z,13.23
2018-07-24T20:28:13.330Z,10.97
2018-07-24T20:31:15.606Z,8.23
2018-07-24T20:34:17.930Z,9.57
2018-07-24T20:37:19.964Z,10.13
2018-07-24T20:40:22.112Z,8.67
2018-07-24T20:43:24.197Z,9.47
2018-07-24T20:46:26.337Z,9.60
2018-07-24T20:49:28.311Z,8.70
2018-07-24T20:52:30.290Z,8.37
2018-07-24T20:55:32.400Z,8.50
2018-07-24T20:58:34.483Z,9.80
2018-07-24T21:01:36.648Z,8.73
2018-07-24T21:04:38.700Z,9.47
2018-07-24T21:07:41.517Z,7.50
2018-07-24T21:10:43.539Z,8.77
2018-07-24T21:13:45.659Z,7.87
2018-07-24T21:16:47.744Z,7.57
2018-07-24T21:19:49.888Z,8.03
2018-07-24T21:22:51.943Z,8.57
2018-07-24T21:25:54.063Z,8.10
2018-07-24T21:28:56.188Z,8.20
2018-07-24T21:32:00.171Z,7.63
2018-07-24T21:35:02.289Z,8.70
2018-07-24T21:38:04.377Z,7.87
2018-07-24T21:41:06.696Z,10.17
2018-07-24T21:44:08.871Z,8.27
2018-07-24T21:47:11.020Z,8.10
2018-07-24T21:50:13.179Z,7.73
2018-07-24T21:53:15.232Z,8.40
2018-07-24T21:56:17.368Z,8.27
2018-07-24T21:59:19.499Z,8.13
2018-07-24T22:02:21.624Z,9.30
2018-07-24T22:05:23.638Z,8.70
2018-07-24T22:08:25.621Z,8.80
2018-07-24T22:11:32.635Z,8.37
2018-07-24T22:14:35.722Z,9.13
2018-07-24T22:17:37.769Z,8.10
2018-07-24T22:20:39.831Z,7.93
2018-07-24T22:23:42.847Z,8.20
2018-07-24T22:26:45.020Z,9.30
2018-07-24T22:29:47.112Z,8.20
2018-07-24T22:32:49.144Z,8.70
2018-07-24T22:35:51.229Z,8.67
2018-07-24T22:38:53.190Z,8.47
2018-07-24T22:41:55.232Z,8.23
2018-07-24T22:44:57.231Z,8.30
2018-07-24T22:48:00.289Z,9.17
2018-07-24T22:51:02.435Z,9.60
2018-07-24T22:54:04.460Z,9.03
2018-07-24T22:57:06.551Z,8.60
2018-07-24T23:00:08.523Z,8.73
2018-07-24T23:03:11.056Z,8.80
2018-07-24T23:06:13.104Z,8.57
2018-07-24T23:09:15.062Z,8.20
2018-07-24T23:12:17.089Z,8.17
2018-07-24T23:15:19.156Z,8.83
2018-07-24T23:18:21.294Z,8.70
2018-07-24T23:21:23.383Z,8.40
2018-07-24T23:24:26.459Z,8.67
2018-07-24T23:27:28.519Z,10.63
2018-07-24T23:30:36.427Z,8.47
2018-07-24T23:33:38.519Z,8.87
2018-07-24T23:36:41.486Z,8.97
2018-07-24T23:39:43.576Z,8.83
2018-07-24T23:42:45.647Z,9.93
2018-07-24T23:45:47.700Z,13.57
2018-07-24T23:48:49.800Z,9.40
2018-07-24T23:51:51.814Z,8.93
2018-07-24T23:54:53.913Z,8.77
2018-07-24T23:57:56.151Z,13.00
